createdAt,value
2023-05-05T00:02:26.341Z,61.02
2023-05-05T00:05:39.553Z,61.27
2023-05-05T00:08:10.515Z,60.86
2023-05-05T00:10:36.954Z,61.25
2023-05-05T00:13:07.877Z,61.90
2023-05-05T00:15:45.393Z,61.66
2023-05-05T00:18:14.618Z,62.17
2023-05-05T00:20:46.056Z,62.26
2023-05-05T00:23:13.703Z,62.61
2023-05-05T00:25:43.869Z,62.66
2023-05-05T00:28:17.000Z,62.62
2023-05-05T00:30:43.881Z,63.03
2023-05-05T00:33:11.253Z,63.67
2023-05-05T00:35:38.138Z,63.90
2023-05-05T00:38:05.724Z,63.24
2023-05-05T00:40:32.737Z,62.41
2023-05-05T00:43:06.919Z,62.60
2023-05-05T00:45:37.547Z,62.14
2023-05-05T00:48:05.350Z,63.23
2023-05-05T00:50:38.575Z,63.32
2023-05-05T00:53:10.497Z,64.48
2023-05-05T00:58:20.144Z,63.82
2023-05-05T01:00:47.558Z,63.58
2023-05-05T01:03:19.104Z,62.28
2023-05-05T01:06:14.265Z,62.11
2023-05-05T01:09:02.941Z,61.76
2023-05-05T01:11:51.820Z,61.69
2023-05-05T01:14:35.207Z,61.68
2023-05-05T01:17:24.766Z,61.91
2023-05-05T01:20:12.932Z,62.10
2023-05-05T01:22:52.158Z,62.19
2023-05-05T01:26:04.385Z,63.00
2023-05-05T01:28:58.303Z,63.36
2023-05-05T01:31:54.948Z,63.92
2023-05-05T01:34:29.885Z,63.76
2023-05-05T01:37:09.174Z,63.35
2023-05-05T01:39:37.682Z,65.63
2023-05-05T01:42:23.294Z,65.76
2023-05-05T01:44:52.691Z,66.21
2023-05-05T01:47:24.785Z,66.52
2023-05-05T01:55:24.440Z,66.22
2023-05-05T01:57:56.907Z,67.57
2023-05-05T02:00:25.203Z,67.80
2023-05-05T02:08:23.414Z,68.65
2023-05-05T02:11:15.440Z,67.87
2023-05-05T02:13:50.457Z,68.67
2023-05-05T02:16:18.992Z,68.59
2023-05-05T02:18:55.756Z,68.66
2023-05-05T02:21:23.628Z,68.79
2023-05-05T02:23:52.146Z,69.28
2023-05-05T02:26:21.948Z,72.72
2023-05-05T02:28:59.832Z,72.63
2023-05-05T02:31:39.017Z,73.02
2023-05-05T02:34:08.004Z,73.00
2023-05-05T02:36:39.888Z,74.59
2023-05-05T02:39:14.358Z,74.93
2023-05-05T02:41:43.347Z,74.80
2023-05-05T02:44:13.526Z,75.41
2023-05-05T02:46:41.761Z,75.14
2023-05-05T02:49:12.424Z,74.73
2023-05-05T02:51:39.233Z,74.73
2023-05-05T02:54:06.732Z,75.17
2023-05-05T02:56:52.216Z,74.38
2023-05-05T02:59:47.768Z,74.60
2023-05-05T03:02:42.292Z,73.72
2023-05-05T03:05:47.832Z,75.29
2023-05-05T03:08:37.886Z,75.68
2023-05-05T03:11:19.571Z,76.04
2023-05-05T03:13:51.472Z,75.65
2023-05-05T03:16:20.668Z,76.57
2023-05-05T03:18:57.277Z,77.18
2023-05-05T03:21:25.546Z,76.41
2023-05-05T03:24:15.744Z,76.26
2023-05-05T03:26:44.880Z,75.02
2023-05-05T03:29:15.364Z,76.56
2023-05-05T03:31:48.170Z,76.23
2023-05-05T03:34:15.026Z,76.81
2023-05-05T03:36:41.539Z,76.45
2023-05-05T03:39:46.378Z,75.47
2023-05-05T03:42:34.434Z,76.24
2023-05-05T03:45:02.677Z,75.96
2023-05-05T03:47:29.464Z,76.07
2023-05-05T03:49:58.048Z,76.41
2023-05-05T03:52:24.876Z,76.42
2023-05-05T03:54:52.569Z,76.16
2023-05-05T03:57:23.960Z,76.85
2023-05-05T03:59:57.891Z,77.49
2023-05-05T04:02:28.029Z,77.31
2023-05-05T04:04:58.024Z,76.78
2023-05-05T04:07:40.048Z,77.21
2023-05-05T04:13:11.429Z,77.63
2023-05-05T04:15:41.103Z,77.96
2023-05-05T04:18:09.319Z,77.84
2023-05-05T04:20:36.915Z,78.12
2023-05-05T04:23:12.393Z,77.73
2023-05-05T04:25:47.106Z,77.75
2023-05-05T04:28:14.031Z,78.32
2023-05-05T04:30:46.678Z,78.31
2023-05-05T04:33:20.466Z,78.56
2023-05-05T04:35:50.511Z,78.23
2023-05-05T04:38:21.973Z,78.54
2023-05-05T04:40:53.648Z,78.72
2023-05-05T04:43:24.143Z,78.98
2023-05-05T04:46:06.910Z,79.34
2023-05-05T04:49:05.002Z,78.59
2023-05-05T04:51:33.740Z,79.29
2023-05-05T04:54:04.462Z,79.06
2023-05-05T04:56:32.368Z,79.46
2023-05-05T04:59:03.467Z,79.19
2023-05-05T05:01:35.721Z,79.49
2023-05-05T05:04:06.687Z,79.76
2023-05-05T05:06:37.041Z,79.25
2023-05-05T05:09:05.809Z,79.49
2023-05-05T05:11:35.942Z,78.30
2023-05-05T05:14:05.780Z,78.90
2023-05-05T05:16:39.587Z,79.23
2023-05-05T05:19:06.384Z,79.35
2023-05-05T05:21:33.657Z,79.42
2023-05-05T05:24:03.160Z,79.13
2023-05-05T05:26:34.645Z,79.40
2023-05-05T05:29:06.984Z,78.00
2023-05-05T05:31:37.938Z,79.12
2023-05-05T05:34:12.928Z,79.34
2023-05-05T05:36:44.996Z,79.25
2023-05-05T05:39:16.139Z,79.97
2023-05-05T05:41:46.171Z,79.49
2023-05-05T05:44:38.382Z,79.13
2023-05-05T05:47:12.259Z,79.11
2023-05-05T05:49:40.487Z,79.26
2023-05-05T05:52:09.958Z,77.30
2023-05-05T05:54:41.689Z,78.73
2023-05-05T05:57:34.703Z,78.48
2023-05-05T06:00:08.115Z,78.71
2023-05-05T06:02:37.259Z,78.04
2023-05-05T06:05:14.823Z,77.75
2023-05-05T06:07:42.938Z,77.96
2023-05-05T06:10:25.593Z,77.52
2023-05-05T06:12:54.066Z,77.16
2023-05-05T06:15:25.990Z,77.56
2023-05-05T06:18:00.113Z,76.66
2023-05-05T06:20:30.454Z,75.94
2023-05-05T06:23:01.804Z,75.11
2023-05-05T06:25:29.335Z,74.27
2023-05-05T06:27:59.577Z,74.52
2023-05-05T06:30:32.387Z,74.24
2023-05-05T06:32:59.428Z,74.17
2023-05-05T06:35:28.116Z,73.85
2023-05-05T06:37:54.715Z,73.54
2023-05-05T06:40:27.251Z,72.95
2023-05-05T06:42:57.903Z,72.72
2023-05-05T06:45:32.423Z,72.47
2023-05-05T06:48:05.243Z,71.82
2023-05-05T06:50:34.753Z,71.64
2023-05-05T06:53:11.656Z,71.13
2023-05-05T06:55:48.426Z,71.10
2023-05-05T06:58:22.183Z,71.04
2023-05-05T07:00:51.650Z,70.37
2023-05-05T07:03:21.031Z,71.32
2023-05-05T07:05:53.899Z,70.61
2023-05-05T07:08:23.581Z,69.94
2023-05-05T07:10:55.256Z,69.84
2023-05-05T07:16:13.776Z,70.21
2023-05-05T07:18:44.074Z,69.94
2023-05-05T07:21:11.029Z,68.93
2023-05-05T07:24:03.242Z,68.25
2023-05-05T07:26:31.157Z,68.51
2023-05-05T07:28:59.364Z,66.93
2023-05-05T07:31:30.210Z,67.83
2023-05-05T07:33:58.083Z,67.58
2023-05-05T07:36:27.961Z,68.01
2023-05-05T07:38:59.346Z,68.19
2023-05-05T07:41:28.663Z,66.96
2023-05-05T07:43:55.797Z,65.91
2023-05-05T07:46:28.193Z,67.56
2023-05-05T07:48:55.320Z,66.92
2023-05-05T07:51:27.152Z,66.04
2023-05-05T07:53:56.675Z,64.36
2023-05-05T07:56:23.701Z,64.76
2023-05-05T07:58:55.664Z,64.91
2023-05-05T08:01:26.366Z,64.91
2023-05-05T08:03:55.788Z,64.06
2023-05-05T08:06:24.901Z,64.03
2023-05-05T08:08:57.152Z,64.37
2023-05-05T08:11:29.470Z,63.00
2023-05-05T08:13:59.373Z,63.37
2023-05-05T08:16:26.181Z,62.72
2023-05-05T08:19:28.787Z,62.20
2023-05-05T08:21:58.876Z,60.46
2023-05-05T08:24:39.313Z,61.28
2023-05-05T08:32:40.390Z,58.81
2023-05-05T08:35:09.325Z,57.74
2023-05-05T08:37:36.452Z,57.73
2023-05-05T08:40:11.183Z,58.33
2023-05-05T08:42:39.440Z,59.81
2023-05-05T08:45:16.669Z,58.96
2023-05-05T08:47:44.689Z,59.01
2023-05-05T08:50:12.616Z,58.92
2023-05-05T08:52:42.060Z,59.76
2023-05-05T08:55:21.224Z,59.41
2023-05-05T08:57:58.466Z,59.32
2023-05-05T09:00:30.327Z,59.20
2023-05-05T09:03:03.388Z,58.99
2023-05-05T09:05:34.967Z,59.00
2023-05-05T09:08:08.284Z,59.26
2023-05-05T09:10:36.686Z,58.69
2023-05-05T09:13:07.351Z,58.86
2023-05-05T09:15:37.944Z,58.83
2023-05-05T09:18:09.724Z,59.94
2023-05-05T09:20:40.268Z,59.19
2023-05-05T09:23:20.894Z,59.43
2023-05-05T09:26:07.295Z,58.63
2023-05-05T09:28:35.106Z,59.12
2023-05-05T09:31:19.956Z,59.07
2023-05-05T09:33:51.858Z,58.49
2023-05-05T09:36:18.781Z,58.62
2023-05-05T09:39:09.228Z,58.18
2023-05-05T09:41:41.459Z,58.29
2023-05-05T09:44:09.762Z,58.92
2023-05-05T09:47:07.234Z,59.23
2023-05-05T09:49:46.246Z,58.76
2023-05-05T09:52:20.097Z,60.24
2023-05-05T09:54:59.251Z,60.55
2023-05-05T09:57:35.191Z,60.33
2023-05-05T10:00:15.008Z,60.93
2023-05-05T10:02:43.508Z,61.36
2023-05-05T10:05:17.889Z,60.80
2023-05-05T10:07:48.265Z,60.86
2023-05-05T10:10:17.217Z,60.16
2023-05-05T10:12:52.785Z,61.37
2023-05-05T10:15:25.482Z,59.25
2023-05-05T10:18:07.074Z,64.47
2023-05-05T10:20:45.854Z,67.98
2023-05-05T10:23:15.792Z,70.72
2023-05-05T10:25:50.806Z,70.80
2023-05-05T10:28:27.502Z,73.65
2023-05-05T10:31:25.197Z,74.45
2023-05-05T10:48:38.227Z,77.49
2023-05-05T12:05:43.919Z,82.65
2023-05-05T12:21:21.686Z,82.11
2023-05-05T12:24:38.806Z,82.35
2023-05-05T12:27:09.627Z,82.57
2023-05-05T12:29:36.427Z,82.99
2023-05-05T12:32:04.371Z,83.80
2023-05-05T12:34:35.780Z,83.63
2023-05-05T12:37:21.765Z,83.48
2023-05-05T12:39:52.233Z,83.60
2023-05-05T12:46:18.119Z,83.69
2023-05-05T12:48:47.958Z,83.95
2023-05-05T12:51:28.926Z,83.43
2023-05-05T12:54:27.679Z,83.44
2023-05-05T12:57:10.538Z,83.68
2023-05-05T12:59:37.024Z,83.34
2023-05-05T13:33:03.588Z,84.29
2023-05-05T13:35:32.129Z,83.89
2023-05-05T13:38:01.046Z,83.24
2023-05-05T13:40:29.302Z,84.34
2023-05-05T13:42:59.236Z,84.17
2023-05-05T13:49:09.812Z,83.23
2023-05-05T13:51:37.683Z,83.37
2023-05-05T13:57:01.075Z,84.52
2023-05-05T13:59:29.971Z,82.54
2023-05-05T14:40:36.541Z,80.90
2023-05-05T14:43:03.091Z,81.31
2023-05-05T14:45:34.652Z,81.29
2023-05-05T14:48:01.621Z,81.72
2023-05-05T14:50:28.619Z,81.56
2023-05-05T14:52:59.166Z,81.29
2023-05-05T14:55:26.904Z,81.49
2023-05-05T14:57:59.009Z,81.96
2023-05-05T15:00:30.296Z,82.74
2023-05-05T15:03:03.876Z,82.21
2023-05-05T15:05:38.132Z,82.08
2023-05-05T15:08:06.751Z,81.67
2023-05-05T15:10:33.557Z,81.34
2023-05-05T15:13:04.182Z,81.73
2023-05-05T15:15:31.291Z,80.56
2023-05-05T15:17:58.651Z,80.39
2023-05-05T15:20:25.584Z,81.12
2023-05-05T15:23:02.601Z,79.70
2023-05-05T15:25:31.193Z,80.39
2023-05-05T15:28:00.783Z,80.01
2023-05-05T15:30:36.630Z,81.02
2023-05-05T15:44:33.179Z,79.69
2023-05-05T15:47:00.151Z,77.53
2023-05-05T15:49:35.313Z,77.60
2023-05-05T15:52:02.640Z,77.69
2023-05-05T15:54:31.215Z,78.30
2023-05-05T16:12:04.193Z,79.47
2023-05-05T16:14:36.713Z,79.47
2023-05-05T16:17:03.330Z,79.40
2023-05-05T16:23:04.531Z,77.07
2023-05-05T16:25:31.030Z,76.87
2023-05-05T16:30:55.668Z,76.88
2023-05-05T16:33:33.894Z,76.70
2023-05-05T16:36:03.558Z,75.52
2023-05-05T16:38:52.237Z,75.13
2023-05-05T16:41:26.136Z,75.20
2023-05-05T16:43:59.957Z,75.85
2023-05-05T16:46:27.234Z,74.25
2023-05-05T16:48:54.600Z,74.80
2023-05-05T16:51:41.884Z,73.89
2023-05-05T16:54:09.311Z,74.29
2023-05-05T16:56:36.130Z,73.59
2023-05-05T16:59:05.271Z,72.79
2023-05-05T17:01:35.279Z,73.12
2023-05-05T17:04:06.131Z,72.98
2023-05-05T17:06:39.004Z,75.39
2023-05-05T17:09:08.742Z,73.75
2023-05-05T17:21:15.858Z,72.57
2023-05-05T17:23:42.585Z,71.44
2023-05-05T17:26:09.752Z,72.05
2023-05-05T17:28:36.768Z,72.02
2023-05-05T17:31:03.504Z,72.69
2023-05-05T17:33:30.860Z,72.03
2023-05-05T17:36:01.051Z,72.56
2023-05-05T17:38:27.940Z,72.68
2023-05-05T17:41:02.432Z,72.86
2023-05-05T17:43:29.628Z,73.23
2023-05-05T17:46:00.241Z,74.21
2023-05-05T17:48:33.449Z,73.07
2023-05-05T17:51:05.881Z,73.19
2023-05-05T17:53:35.136Z,73.74
2023-05-05T17:56:03.148Z,73.45
2023-05-05T18:04:42.201Z,75.63
2023-05-05T18:07:08.787Z,75.18
2023-05-05T18:09:36.057Z,76.31
2023-05-05T18:12:03.628Z,76.18
2023-05-05T18:14:30.375Z,75.71
2023-05-05T18:16:56.697Z,76.54
2023-05-05T18:19:23.792Z,77.28
2023-05-05T18:21:52.428Z,77.03
2023-05-05T18:24:20.473Z,77.86
2023-05-05T18:26:50.060Z,77.15
2023-05-05T18:29:17.855Z,76.06
2023-05-05T18:31:53.054Z,76.29
2023-05-05T18:34:20.623Z,76.90
2023-05-05T18:36:47.796Z,77.02
2023-05-05T18:39:14.739Z,77.79
2023-05-05T18:41:41.195Z,78.81
2023-05-05T18:44:07.841Z,79.16
2023-05-05T18:46:34.370Z,79.05
2023-05-05T18:49:00.903Z,79.34
2023-05-05T18:51:28.131Z,79.69
2023-05-05T18:53:54.787Z,80.06
2023-05-05T18:56:21.680Z,80.21
2023-05-05T18:58:48.625Z,80.69
2023-05-05T19:01:16.047Z,80.77
2023-05-05T19:03:45.787Z,81.12
2023-05-05T19:06:12.305Z,80.28
2023-05-05T19:08:38.842Z,80.84
2023-05-05T19:11:05.286Z,80.65
2023-05-05T19:13:31.747Z,81.10
2023-05-05T19:15:58.339Z,80.78
2023-05-05T19:18:25.165Z,81.66
2023-05-05T19:20:51.577Z,81.29
2023-05-05T19:23:17.977Z,81.48
2023-05-05T19:25:44.464Z,81.83
2023-05-05T19:28:11.236Z,81.75
2023-05-05T19:30:37.735Z,81.65
2023-05-05T19:33:04.358Z,81.39
2023-05-05T19:35:31.321Z,81.63
2023-05-05T19:37:57.781Z,81.82
2023-05-05T19:40:24.217Z,82.18
2023-05-05T19:42:50.629Z,82.17
2023-05-05T19:45:17.218Z,82.10
2023-05-05T19:47:43.671Z,81.79
2023-05-05T19:50:26.227Z,81.52
2023-05-05T19:52:54.470Z,81.41
2023-05-05T19:55:21.937Z,81.67
2023-05-05T19:57:48.352Z,81.42
2023-05-05T20:00:15.001Z,80.92
2023-05-05T20:02:41.849Z,81.34
2023-05-05T20:05:09.890Z,81.70
2023-05-05T20:07:36.311Z,81.74
2023-05-05T20:10:05.187Z,81.07
2023-05-05T20:12:31.578Z,80.33
2023-05-05T20:14:58.173Z,80.64
2023-05-05T20:17:33.501Z,80.53
2023-05-05T20:20:00.044Z,80.12
2023-05-05T20:22:28.839Z,80.64
2023-05-05T20:24:55.142Z,79.91
2023-05-05T20:27:21.525Z,80.37
2023-05-05T20:29:48.202Z,80.80
2023-05-05T20:32:15.725Z,81.63
2023-05-05T20:34:42.171Z,81.47
2023-05-05T20:37:08.698Z,81.75
2023-05-05T20:39:35.484Z,81.83
2023-05-05T20:42:02.585Z,82.48
2023-05-05T20:44:28.916Z,82.47
2023-05-05T20:46:55.466Z,82.65
2023-05-05T20:49:21.924Z,82.69
2023-05-05T20:51:48.284Z,83.27
2023-05-05T20:54:14.711Z,83.06
2023-05-05T20:56:41.149Z,83.14
2023-05-05T20:59:07.484Z,83.29
2023-05-05T21:01:34.533Z,82.95
2023-05-05T21:04:01.421Z,83.48
2023-05-05T21:06:27.805Z,82.72
2023-05-05T21:08:54.205Z,82.99
2023-05-05T21:11:21.369Z,82.88
2023-05-05T21:13:47.838Z,83.29
2023-05-05T21:16:14.266Z,83.50
2023-05-05T21:18:40.760Z,83.30
2023-05-05T21:21:07.363Z,83.15
2023-05-05T21:23:33.794Z,82.86
2023-05-05T21:26:02.299Z,83.17
2023-05-05T21:28:28.808Z,82.84
2023-05-05T21:31:19.644Z,83.18
2023-05-05T21:33:41.486Z,83.10
2023-05-05T21:36:08.246Z,83.37
2023-05-05T21:38:34.624Z,83.80
2023-05-05T21:41:01.050Z,83.29
2023-05-05T21:43:30.795Z,83.66
2023-05-05T21:46:04.726Z,83.32
2023-05-05T21:48:31.750Z,82.95
2023-05-05T21:50:58.155Z,83.16
2023-05-05T21:53:24.531Z,83.07
2023-05-05T21:55:51.470Z,83.47
2023-05-05T21:58:17.925Z,83.15
2023-05-05T22:00:44.963Z,83.15
2023-05-05T22:03:11.646Z,82.94
2023-05-05T22:05:38.379Z,83.21
2023-05-05T22:08:04.875Z,83.45
2023-05-05T22:10:31.333Z,83.15
2023-05-05T22:12:58.143Z,83.26
2023-05-05T22:15:27.617Z,83.71
2023-05-05T22:17:56.560Z,83.21
2023-05-05T22:20:26.092Z,82.92
2023-05-05T22:22:52.498Z,83.36
2023-05-05T22:25:18.955Z,83.83
2023-05-05T22:27:45.538Z,83.82
2023-05-05T22:30:12.566Z,83.79
2023-05-05T22:32:39.853Z,84.00
2023-05-05T22:35:07.237Z,83.90
2023-05-05T22:37:33.649Z,83.75
2023-05-05T22:39:59.973Z,84.30
2023-05-05T22:42:26.701Z,84.22
2023-05-05T22:44:53.339Z,84.48
2023-05-05T22:47:19.804Z,84.46
2023-05-05T22:49:46.402Z,83.96
2023-05-05T22:52:12.975Z,84.11
2023-05-05T22:54:42.074Z,84.37
2023-05-05T22:57:08.412Z,84.91
2023-05-05T22:59:34.777Z,84.36
2023-05-05T23:02:01.179Z,84.07
2023-05-05T23:04:27.624Z,84.34
2023-05-05T23:06:53.997Z,84.36
2023-05-05T23:09:23.608Z,84.63
2023-05-05T23:11:49.994Z,84.65
2023-05-05T23:14:19.210Z,85.19
2023-05-05T23:16:46.192Z,84.92
2023-05-05T23:19:13.594Z,85.09
2023-05-05T23:21:52.194Z,84.70
2023-05-05T23:24:19.951Z,85.11
2023-05-05T23:26:46.403Z,85.72
2023-05-05T23:29:12.779Z,85.45
2023-05-05T23:31:39.114Z,85.64
2023-05-05T23:34:05.586Z,85.96
2023-05-05T23:36:31.936Z,85.63
2023-05-05T23:38:58.362Z,85.39
2023-05-05T23:41:27.677Z,85.42
2023-05-05T23:43:54.086Z,85.61
2023-05-05T23:46:20.652Z,85.69
2023-05-05T23:48:47.160Z,85.66
2023-05-05T23:51:13.489Z,85.68
2023-05-05T23:53:39.888Z,85.96
2023-05-05T23:56:06.891Z,86.17
2023-05-05T23:58:33.281Z,85.89
